Time;durP1;ratioP1;P1;durP2;ratioP2;P2;SDS_P1;SDS_P2;PMS_P1;PMS_P2;Temp;Humidity;BMP_temperature;BMP_pressure;BME280_temperature;BME280_humidity;BME280_pressure;Samples;Min_cycle;Max_cycle;Signal;HPM_P1;HPM_P2
2024/01/22 00:01:38;;;;;;;;;;;;;;;;;;5075063;28;20424;-83
2024/01/22 00:04:04;;;;;;;;;;;;;;;;;;5075729;28;19916;-84
2024/01/22 00:06:29;;;;;;;;;;;;;;;;;;5087844;28;19912;-84
2024/01/22 00:08:55;;;;;;;;;;;;;;;;;;5070664;28;20001;-85
2024/01/22 00:11:21;;;;;;;;;;;;;;;;;;5073562;28;19916;-84
2024/01/22 00:13:47;;;;;;;;;;;;;;;;;;5081836;28;19912;-83
2024/01/22 00:16:13;;;;;;;;;;;;;;;;;;5055984;28;19923;-84
2024/01/22 00:18:39;;;;;;;;;;;;;;;;;;5076433;28;20284;-83
2024/01/22 00:21:05;;;;;;;;;;;;;;;;;;5088591;28;19916;-84
2024/01/22 00:23:30;;;;;;;;;;;;;;;;;;5077122;28;19998;-84
2024/01/22 00:25:56;;;;;;;;;;;;;;;;;;5069551;28;19909;-84
2024/01/22 00:28:22;;;;;;;;;;;;;;;;;;5076317;28;19924;-84
2024/01/22 00:30:48;;;;;;;;;;;;;;;;;;5079527;28;19912;-82
2024/01/22 00:33:14;;;;;;;;;;;;;;;;;;5082493;28;19913;-84
2024/01/22 00:35:40;;;;;;;;;;;;;;;;;;5071668;28;20518;-84
2024/01/22 00:38:06;;;;;;;;;;;;;;;;;;5083352;28;20481;-84
2024/01/22 00:40:31;;;;;;;;;;;;;;;;;;5075531;28;19927;-84
2024/01/22 00:42:57;;;;;;;;;;;;;;;;;;5074219;28;20309;-84
2024/01/22 00:45:23;;;;;;;;;;;;;;;;;;5074718;28;20221;-83
2024/01/22 00:47:49;;;;;;;;;;;;;;;;;;5079555;28;19973;-84
2024/01/22 00:50:15;;;;;;;;;;;;;;;;;;5076032;28;19919;-85
2024/01/22 00:52:41;;;;;;;;;;;;;;;;;;5073984;28;19912;-85
2024/01/22 00:55:06;;;;;;;;;;;;;;;;;;5076618;28;19916;-84
2024/01/22 00:57:32;;;;;;;;;;;;;;;;;;5076473;28;19916;-85
2024/01/22 00:59:58;;;;;;;;;;;;;;;;;;5082711;28;20003;-84
2024/01/22 01:02:24;;;;;;;;;;;;;;;;;;5069185;28;19924;-84
2024/01/22 01:04:50;;;;;;;;;;;;;;;;;;5081511;28;20370;-84
2024/01/22 01:07:16;;;;;;;;;;;;;;;;;;5079783;28;20422;-84
2024/01/22 01:09:42;;;;;;;;;;;;;;;;;;5073843;28;19912;-83
2024/01/22 01:12:08;;;;;;;;;;;;;;;;;;5073631;28;19971;-83
2024/01/22 01:14:33;;;;;;;;;;;;;;;;;;5073116;28;20278;-80
2024/01/22 01:16:59;;;;;;;;;;;;;;;;;;5073994;28;19912;-82
2024/01/22 01:19:25;;;;;;;;;;;;;;;;;;5087126;28;20600;-83
2024/01/22 01:21:51;;;;;;;;;;;;;;;;;;5080199;28;20355;-83
2024/01/22 01:24:17;;;;;;;;;;;;;;;;;;5082382;28;19917;-82
2024/01/22 01:26:43;;;;;;;;;;;;;;;;;;5080904;28;20279;-83
2024/01/22 01:29:09;;;;;;;;;;;;;;;;;;5085225;28;19912;-83
2024/01/22 01:31:35;;;;;;;;;;;;;;;;;;5077675;28;20303;-83
2024/01/22 01:34:01;;;;;;;;;;;;;;;;;;5081555;28;19920;-83
2024/01/22 01:36:26;;;;;;;;;;;;;;;;;;5071553;28;19928;-84
2024/01/22 01:38:52;;;;;;;;;;;;;;;;;;5086238;28;19916;-83
2024/01/22 01:41:18;;;;;;;;;;;;;;;;;;5082013;28;20278;-84
2024/01/22 01:43:44;;;;;;;;;;;;;;;;;;5079511;28;19960;-84
2024/01/22 01:46:10;;;;;;;;;;;;;;;;;;5083141;28;19966;-83
2024/01/22 01:48:36;;;;;;;;;;;;;;;;;;5076077;28;19999;-83
2024/01/22 01:51:01;;;;;;;;;;;;;;;;;;5078436;28;19994;-83
2024/01/22 01:53:27;;;;;;;;;;;;;;;;;;5087553;28;19912;-84
2024/01/22 01:55:53;;;;;;;;;;;;;;;;;;5083874;28;19954;-83
2024/01/22 01:58:19;;;;;;;;;;;;;;;;;;5082251;28;20330;-83
2024/01/22 02:00:45;;;;;;;;;;;;;;;;;;5079187;28;19931;-82
2024/01/22 02:03:11;;;;;;;;;;;;;;;;;;5074394;28;19917;-82
2024/01/22 02:05:37;;;;;;;;;;;;;;;;;;5082996;28;19924;-82
2024/01/22 02:08:02;;;;;;;;;;;;;;;;;;5073286;28;19908;-83
2024/01/22 02:10:28;;;;;;;;;;;;;;;;;;5083149;28;20493;-83
2024/01/22 02:12:54;;;;;;;;;;;;;;;;;;5083939;28;19943;-83
2024/01/22 02:15:20;;;;;;;;;;;;;;;;;;5079320;28;20434;-84
2024/01/22 02:17:46;;;;;;;;;;;;;;;;;;5083460;28;20285;-84
2024/01/22 02:20:12;;;;;;;;;;;;;;;;;;5075913;28;19912;-83
2024/01/22 02:22:38;;;;;;;;;;;;;;;;;;5082292;28;19909;-83
2024/01/22 02:25:04;;;;;;;;;;;;;;;;;;5076434;28;19939;-83
2024/01/22 02:27:29;;;;;;;;;;;;;;;;;;5078949;28;20279;-84
2024/01/22 02:29:55;;;;;;;;;;;;;;;;;;5078867;28;19942;-82
2024/01/22 02:32:21;;;;;;;;;;;;;;;;;;5075645;28;19954;-83
2024/01/22 02:34:47;;;;;;;;;;;;;;;;;;5078926;28;19955;-83
2024/01/22 02:37:15;;;;;;;;;;;;;;;;;;5083016;28;19920;-83
2024/01/22 02:39:41;;;;;;;;;;;;;;;;;;5082151;28;20374;-83
2024/01/22 02:42:06;;;;;;;;;;;;;;;;;;5078985;28;19951;-83
2024/01/22 02:44:34;;;;;;;;;;;;;;;;;;5084180;28;19920;-83
2024/01/22 02:47:00;;;;;;;;;;;;;;;;;;5075524;28;19920;-84
2024/01/22 02:49:26;;;;;;;;;;;;;;;;;;5078161;28;19923;-83
2024/01/22 02:51:52;;;;;;;;;;;;;;;;;;5077784;28;19912;-83
2024/01/22 02:54:18;;;;;;;;;;;;;;;;;;5055477;28;20422;-83
2024/01/22 02:56:43;;;;;;;;;;;;;;;;;;5077674;28;20420;-84
2024/01/22 02:59:09;;;;;;;;;;;;;;;;;;5074228;28;20362;-83
2024/01/22 03:01:35;;;;;;;;;;;;;;;;;;5084360;28;19912;-81
2024/01/22 03:04:01;;;;;;;;;;;;;;;;;;5073798;28;19920;-83
2024/01/22 03:06:27;;;;;;;;;;;;;;;;;;5080506;28;19928;-84
2024/01/22 03:08:53;;;;;;;;;;;;;;;;;;5077938;28;19913;-83
2024/01/22 03:11:18;;;;;;;;;;;;;;;;;;5080592;28;19952;-83
2024/01/22 03:13:44;;;;;;;;;;;;;;;;;;5084629;28;19913;-83
2024/01/22 03:16:10;;;;;;;;;;;;;;;;;;5075008;28;19920;-83
2024/01/22 03:18:36;;;;;;;;;;;;;;;;;;5080248;28;20378;-84
2024/01/22 03:21:03;;;;;;;;;;;;;;;;;;5072634;28;20283;-83
2024/01/22 03:23:29;;;;;;;;;;;;;;;;;;5088996;28;19938;-83
2024/01/22 03:25:55;;;;;;;;;;;;;;;;;;5075384;28;19999;-83
2024/01/22 03:28:21;;;;;;;;;;;;;;;;;;5086766;28;20501;-84
2024/01/22 03:30:47;;;;;;;;;;;;;;;;;;5089337;28;20031;-83
2024/01/22 03:33:12;;;;;;;;;;;;;;;;;;5084774;28;20486;-83
2024/01/22 03:35:38;;;;;;;;;;;;;;;;;;5085071;28;19923;-83
2024/01/22 03:38:04;;;;;;;;;;;;;;;;;;5077924;28;19924;-83
2024/01/22 03:40:30;;;;;;;;;;;;;;;;;;5078223;28;20389;-83
2024/01/22 03:42:56;;;;;;;;;;;;;;;;;;5088702;28;20349;-83
2024/01/22 03:45:22;;;;;;;;;;;;;;;;;;5084614;28;19985;-83
2024/01/22 03:47:47;;;;;;;;;;;;;;;;;;5078946;28;20045;-84
2024/01/22 03:50:13;;;;;;;;;;;;;;;;;;5077013;28;19912;-83
2024/01/22 03:52:39;;;;;;;;;;;;;;;;;;5089031;28;19912;-82
2024/01/22 03:55:05;;;;;;;;;;;;;;;;;;5077633;28;20376;-82
2024/01/22 03:57:31;;;;;;;;;;;;;;;;;;5079848;28;19919;-82
2024/01/22 03:59:57;;;;;;;;;;;;;;;;;;5078830;28;19919;-83
2024/01/22 04:02:23;;;;;;;;;;;;;;;;;;5075888;28;19913;-82
2024/01/22 04:04:50;;;;;;;;;;;;;;;;;;5075515;28;19920;-82
2024/01/22 04:07:16;;;;;;;;;;;;;;;;;;5069550;28;20302;-82
2024/01/22 04:09:42;;;;;;;;;;;;;;;;;;5076536;28;19995;-82
2024/01/22 04:12:08;;;;;;;;;;;;;;;;;;5079415;28;20317;-82
2024/01/22 04:14:33;;;;;;;;;;;;;;;;;;5073731;28;20302;-83
2024/01/22 04:16:59;;;;;;;;;;;;;;;;;;5069814;28;20337;-82
2024/01/22 04:19:25;;;;;;;;;;;;;;;;;;5079616;28;19920;-83
2024/01/22 04:21:51;;;;;;;;;;;;;;;;;;5077945;28;19919;-85
2024/01/22 04:24:17;;;;;;;;;;;;;;;;;;5070081;28;20006;-82
2024/01/22 04:26:43;;;;;;;;;;;;;;;;;;5077169;28;19923;-83
2024/01/22 04:29:09;;;;;;;;;;;;;;;;;;5070454;28;19916;-83
2024/01/22 04:31:44;;;;;;;;;;;;;;;;;;5079009;28;20007;-82
2024/01/22 04:34:10;;;;;;;;;;;;;;;;;;5082577;28;19912;-83
2024/01/22 04:36:35;;;;;;;;;;;;;;;;;;5086322;28;19977;-82
2024/01/22 04:39:02;;;;;;;;;;;;;;;;;;5080679;28;19912;-83
2024/01/22 04:41:28;;;;;;;;;;;;;;;;;;5072350;28;19955;-83
2024/01/22 04:43:54;;;;;;;;;;;;;;;;;;5069474;28;19960;-83
2024/01/22 04:46:20;;;;;;;;;;;;;;;;;;5071838;28;19939;-83
2024/01/22 04:48:46;;;;;;;;;;;;;;;;;;5079501;28;19908;-83
2024/01/22 04:51:11;;;;;;;;;;;;;;;;;;5085794;28;20374;-83
2024/01/22 04:53:37;;;;;;;;;;;;;;;;;;5084335;28;19912;-83
2024/01/22 04:56:03;;;;;;;;;;;;;;;;;;5085701;28;19966;-84
2024/01/22 04:58:29;;;;;;;;;;;;;;;;;;5077155;28;19915;-84
2024/01/22 05:00:55;;;;;;;;;;;;;;;;;;5073971;28;19917;-84
2024/01/22 05:03:21;;;;;;;;;;;;;;;;;;5069597;28;19916;-84
2024/01/22 05:05:46;;;;;;;;;;;;;;;;;;5073882;28;19919;-83
2024/01/22 05:08:12;;;;;;;;;;;;;;;;;;5057320;28;20536;-84
2024/01/22 05:10:38;;;;;;;;;;;;;;;;;;5076926;28;20586;-85
2024/01/22 05:13:04;;;;;;;;;;;;;;;;;;5075246;28;20480;-84
2024/01/22 05:15:30;;;;;;;;;;;;;;;;;;5074560;28;19909;-84
2024/01/22 05:17:56;;;;;;;;;;;;;;;;;;5082270;28;19917;-84
2024/01/22 05:20:21;;;;;;;;;;;;;;;;;;5074157;28;19923;-85
2024/01/22 05:22:47;;;;;;;;;;;;;;;;;;5073795;28;19917;-84
2024/01/22 05:25:13;;;;;;;;;;;;;;;;;;5074797;28;20370;-85
2024/01/22 05:27:39;;;;;;;;;;;;;;;;;;5093476;28;19962;-85
2024/01/22 05:30:05;;;;;;;;;;;;;;;;;;5089963;28;19916;-85
2024/01/22 05:32:32;;;;;;;;;;;;;;;;;;5091826;28;19982;-84
2024/01/22 05:34:58;;;;;;;;;;;;;;;;;;5084233;28;19908;-85
2024/01/22 05:37:23;;;;;;;;;;;;;;;;;;5086067;28;19926;-87
2024/01/22 05:39:49;;;;;;;;;;;;;;;;;;5077063;28;19912;-80
2024/01/22 05:42:15;;;;;;;;;;;;;;;;;;5081683;28;19916;-85
2024/01/22 05:44:41;;;;;;;;;;;;;;;;;;5084121;28;19920;-79
2024/01/22 05:47:08;;;;;;;;;;;;;;;;;;5081012;28;19913;-86
2024/01/22 05:49:34;;;;;;;;;;;;;;;;;;5082870;28;19912;-86
2024/01/22 05:52:00;;;;;;;;;;;;;;;;;;5075365;28;19985;-85
2024/01/22 05:54:26;;;;;;;;;;;;;;;;;;5083327;28;19923;-86
2024/01/22 05:56:52;;;;;;;;;;;;;;;;;;5079804;28;19920;-87
2024/01/22 05:59:17;;;;;;;;;;;;;;;;;;5081974;28;20423;-85
2024/01/22 06:01:43;;;;;;;;;;;;;;;;;;5087475;28;20401;-86
2024/01/22 06:04:09;;;;;;;;;;;;;;;;;;5077896;28;19970;-87
2024/01/22 06:06:35;;;;;;;;;;;;;;;;;;5076729;28;19909;-84
2024/01/22 06:09:01;;;;;;;;;;;;;;;;;;5075177;28;19920;-86
2024/01/22 06:11:28;;;;;;;;;;;;;;;;;;5072450;28;19919;-87
2024/01/22 06:13:54;;;;;;;;;;;;;;;;;;5071273;28;20138;-85
2024/01/22 06:16:20;;;;;;;;;;;;;;;;;;5073824;28;20287;-86
2024/01/22 06:18:47;;;;;;;;;;;;;;;;;;5079469;28;19928;-86
2024/01/22 06:21:13;;;;;;;;;;;;;;;;;;5091381;28;19923;-87
2024/01/22 06:23:41;;;;;;;;;;;;;;;;;;5088229;28;19912;-86
2024/01/22 06:26:07;;;;;;;;;;;;;;;;;;5080878;28;19912;-85
2024/01/22 06:28:34;;;;;;;;;;;;;;;;;;5086072;28;20287;-86
2024/01/22 06:30:59;;;;;;;;;;;;;;;;;;5073587;28;19912;-85
2024/01/22 06:33:25;;;;;;;;;;;;;;;;;;5076042;28;19919;-86
2024/01/22 06:35:51;;;;;;;;;;;;;;;;;;5073179;28;19938;-87
2024/01/22 06:38:17;;;;;;;;;;;;;;;;;;5073583;28;19975;-87
2024/01/22 06:40:44;;;;;;;;;;;;;;;;;;5088410;28;19913;-87
2024/01/22 06:43:10;;;;;;;;;;;;;;;;;;5092146;28;19951;-85
2024/01/22 06:45:35;;;;;;;;;;;;;;;;;;5080518;28;19963;-85
2024/01/22 06:48:01;;;;;;;;;;;;;;;;;;5071723;28;21524;-85
2024/01/22 06:50:27;;;;;;;;;;;;;;;;;;5076032;28;20384;-87
2024/01/22 06:52:53;;;;;;;;;;;;;;;;;;5072027;28;19908;-86
2024/01/22 06:55:19;;;;;;;;;;;;;;;;;;5077714;28;19938;-88
2024/01/22 06:57:45;;;;;;;;;;;;;;;;;;5084657;28;19941;-82
2024/01/22 07:00:11;;;;;;;;;;;;;;;;;;5071468;28;19954;-88
2024/01/22 07:02:41;;;;;;;;;;;;;;;;;;5075461;28;19912;-86
2024/01/22 07:05:07;;;;;;;;;;;;;;;;;;5071232;28;20338;-87
2024/01/22 07:07:33;;;;;;;;;;;;;;;;;;5071714;28;19928;-88
2024/01/22 07:09:59;;;;;;;;;;;;;;;;;;5080250;28;19944;-85
2024/01/22 07:12:25;;;;;;;;;;;;;;;;;;5081087;28;19927;-86
2024/01/22 07:14:51;;;;;;;;;;;;;;;;;;5074488;28;20271;-87
2024/01/22 07:17:17;;;;;;;;;;;;;;;;;;5080142;28;19912;-90
2024/01/22 07:19:43;;;;;;;;;;;;;;;;;;5083375;28;20375;-86
2024/01/22 07:22:08;;;;;;;;;;;;;;;;;;5088734;28;19916;-84
2024/01/22 07:24:35;;;;;;;;;;;;;;;;;;5089847;28;19973;-86
2024/01/22 07:27:01;;;;;;;;;;;;;;;;;;5090514;28;19916;-85
2024/01/22 07:29:26;;;;;;;;;;;;;;;;;;5087516;28;19946;-86
2024/01/22 07:31:53;;;;;;;;;;;;;;;;;;5075934;28;19912;-84
2024/01/22 07:34:19;;;;;;;;;;;;;;;;;;5073486;28;19958;-84
2024/01/22 07:36:45;;;;;;;;;;;;;;;;;;5087263;28;19956;-83
2024/01/22 07:39:11;;;;;;;;;;;;;;;;;;5080234;28;19919;-87
2024/01/22 07:41:38;;;;;;;;;;;;;;;;;;5089689;28;19920;-84
2024/01/22 07:44:04;;;;;;;;;;;;;;;;;;5074572;28;19939;-86
2024/01/22 07:46:32;;;;;;;;;;;;;;;;;;5069269;28;22252;-87
2024/01/22 07:48:57;;;;;;;;;;;;;;;;;;5069951;28;19909;-85
2024/01/22 07:51:23;;;;;;;;;;;;;;;;;;5070472;28;20081;-89
2024/01/22 07:53:49;;;;;;;;;;;;;;;;;;5071022;28;19917;-87
2024/01/22 07:56:15;;;;;;;;;;;;;;;;;;5069956;28;19954;-86
2024/01/22 07:58:41;;;;;;;;;;;;;;;;;;5078130;28;19920;-87
2024/01/22 08:01:07;;;;;;;;;;;;;;;;;;5072930;28;20003;-89
2024/01/22 08:03:33;;;;;;;;;;;;;;;;;;5069467;28;20007;-87
2024/01/22 08:05:59;;;;;;;;;;;;;;;;;;5069748;28;19908;-85
2024/01/22 08:08:25;;;;;;;;;;;;;;;;;;5069537;28;20375;-87
2024/01/22 08:10:51;;;;;;;;;;;;;;;;;;5083145;28;19982;-85
2024/01/22 08:13:17;;;;;;;;;;;;;;;;;;5084024;28;19912;-89
2024/01/22 08:15:43;;;;;;;;;;;;;;;;;;5089746;28;19915;-84
2024/01/22 08:18:09;;;;;;;;;;;;;;;;;;5089755;28;19919;-85
2024/01/22 08:20:35;;;;;;;;;;;;;;;;;;5070910;28;19908;-87
2024/01/22 08:23:01;;;;;;;;;;;;;;;;;;5071804;28;19916;-85
2024/01/22 08:25:28;;;;;;;;;;;;;;;;;;5072760;28;19908;-86
2024/01/22 08:27:54;;;;;;;;;;;;;;;;;;5086545;28;20026;-85
2024/01/22 08:30:20;;;;;;;;;;;;;;;;;;5089066;28;19908;-84
2024/01/22 08:32:45;;;;;;;;;;;;;;;;;;5088997;28;20523;-85
2024/01/22 08:35:11;;;;;;;;;;;;;;;;;;5089215;28;20324;-85
2024/01/22 08:37:39;;;;;;;;;;;;;;;;;;5070636;28;20003;-84
2024/01/22 08:40:05;;;;;;;;;;;;;;;;;;5075812;28;19921;-86
2024/01/22 08:42:31;;;;;;;;;;;;;;;;;;5082524;28;19955;-84
2024/01/22 08:44:57;;;;;;;;;;;;;;;;;;5068372;28;20017;-86
2024/01/22 08:47:23;;;;;;;;;;;;;;;;;;5068849;28;19909;-86
2024/01/22 08:49:49;;;;;;;;;;;;;;;;;;5068524;28;19912;-85
2024/01/22 08:52:14;;;;;;;;;;;;;;;;;;5068001;28;19915;-86
2024/01/22 08:54:40;;;;;;;;;;;;;;;;;;5084533;28;19923;-85
2024/01/22 08:57:07;;;;;;;;;;;;;;;;;;5088939;28;19912;-86
2024/01/22 08:59:33;;;;;;;;;;;;;;;;;;5069541;28;19912;-85
2024/01/22 09:01:59;;;;;;;;;;;;;;;;;;5080303;28;19999;-87
2024/01/22 09:04:24;;;;;;;;;;;;;;;;;;5071275;28;19916;-86
2024/01/22 09:06:51;;;;;;;;;;;;;;;;;;5068255;28;19912;-84
2024/01/22 09:09:17;;;;;;;;;;;;;;;;;;5072506;28;19965;-89
2024/01/22 09:11:43;;;;;;;;;;;;;;;;;;5088726;28;19965;-87
2024/01/22 09:14:09;;;;;;;;;;;;;;;;;;5074630;28;20377;-86
2024/01/22 09:16:34;;;;;;;;;;;;;;;;;;5068657;28;20025;-86
2024/01/22 09:19:00;;;;;;;;;;;;;;;;;;5069180;28;19951;-86
2024/01/22 09:21:26;;;;;;;;;;;;;;;;;;5068813;28;19916;-87
2024/01/22 09:23:52;;;;;;;;;;;;;;;;;;5068384;28;19916;-88
2024/01/22 09:26:18;;;;;;;;;;;;;;;;;;5069582;28;20379;-88
2024/01/22 09:28:44;;;;;;;;;;;;;;;;;;5068427;28;19951;-86
2024/01/22 09:31:10;;;;;;;;;;;;;;;;;;5068466;28;19954;-88
2024/01/22 09:33:36;;;;;;;;;;;;;;;;;;5068581;28;19930;-87
2024/01/22 09:36:03;;;;;;;;;;;;;;;;;;5068348;28;19909;-88
2024/01/22 09:38:29;;;;;;;;;;;;;;;;;;5069003;28;19975;-88
2024/01/22 09:40:55;;;;;;;;;;;;;;;;;;5077964;28;20387;-87
2024/01/22 09:43:21;;;;;;;;;;;;;;;;;;5083438;28;19919;-88
2024/01/22 09:45:47;;;;;;;;;;;;;;;;;;5068264;28;19913;-87
2024/01/22 09:48:13;;;;;;;;;;;;;;;;;;5068469;28;20593;-89
2024/01/22 09:50:39;;;;;;;;;;;;;;;;;;5071644;28;19913;-86
2024/01/22 09:53:05;;;;;;;;;;;;;;;;;;5068139;28;19912;-89
2024/01/22 09:55:30;;;;;;;;;;;;;;;;;;5068655;28;19909;-86
2024/01/22 09:57:56;;;;;;;;;;;;;;;;;;5068514;28;19919;-87
2024/01/22 10:00:26;;;;;;;;;;;;;;;;;;5067655;28;19921;-90
2024/01/22 10:02:51;;;;;;;;;;;;;;;;;;5067540;28;19909;-88
2024/01/22 10:05:17;;;;;;;;;;;;;;;;;;5071712;28;19908;-86
2024/01/22 10:07:43;;;;;;;;;;;;;;;;;;5071339;28;19912;-88
2024/01/22 10:10:09;;;;;;;;;;;;;;;;;;5071684;28;19920;-88
2024/01/22 10:12:35;;;;;;;;;;;;;;;;;;5053826;28;19951;-87
2024/01/22 10:15:01;;;;;;;;;;;;;;;;;;5071385;28;19916;-87
2024/01/22 10:17:27;;;;;;;;;;;;;;;;;;5071615;28;20367;-88
2024/01/22 10:19:54;;;;;;;;;;;;;;;;;;5079910;28;19999;-88
2024/01/22 10:22:20;;;;;;;;;;;;;;;;;;5076262;28;19918;-86
2024/01/22 10:24:46;;;;;;;;;;;;;;;;;;5074047;28;20293;-85
2024/01/22 10:27:11;;;;;;;;;;;;;;;;;;5082131;28;19933;-87
2024/01/22 10:29:37;;;;;;;;;;;;;;;;;;5083067;28;19912;-86
2024/01/22 10:32:03;;;;;;;;;;;;;;;;;;5071524;28;20011;-84
2024/01/22 10:34:29;;;;;;;;;;;;;;;;;;5079966;28;19909;-87
2024/01/22 10:36:55;;;;;;;;;;;;;;;;;;5054669;28;19916;-86
2024/01/22 10:39:20;;;;;;;;;;;;;;;;;;5083482;28;19922;-84
2024/01/22 10:41:46;;;;;;;;;;;;;;;;;;5076182;28;19947;-86
2024/01/22 10:44:12;;;;;;;;;;;;;;;;;;5083409;28;19917;-86
2024/01/22 10:46:38;;;;;;;;;;;;;;;;;;5070888;28;19966;-86
2024/01/22 10:49:04;;;;;;;;;;;;;;;;;;5080703;28;19953;-90
2024/01/22 10:51:30;;;;;;;;;;;;;;;;;;5092011;28;19916;-89
2024/01/22 10:53:55;;;;;;;;;;;;;;;;;;5078211;28;19913;-88
2024/01/22 10:56:21;;;;;;;;;;;;;;;;;;5084915;28;19912;-89
2024/01/22 10:58:47;;;;;;;;;;;;;;;;;;5072499;28;19987;-88
2024/01/22 11:01:13;;;;;;;;;;;;;;;;;;5089944;28;20049;-88
2024/01/22 11:03:39;;;;;;;;;;;;;;;;;;5066576;28;19939;-89
2024/01/22 11:06:05;;;;;;;;;;;;;;;;;;5071434;28;19913;-88
2024/01/22 11:08:31;;;;;;;;;;;;;;;;;;5083212;28;20367;-89
2024/01/22 11:10:57;;;;;;;;;;;;;;;;;;5088372;28;19912;-88
2024/01/22 11:13:23;;;;;;;;;;;;;;;;;;5077860;28;19912;-86
2024/01/22 11:15:49;;;;;;;;;;;;;;;;;;5088531;28;20414;-87
2024/01/22 11:18:15;;;;;;;;;;;;;;;;;;5092398;28;19912;-88
2024/01/22 11:20:40;;;;;;;;;;;;;;;;;;5071349;28;19943;-87
2024/01/22 11:23:09;;;;;;;;;;;;;;;;;;5080318;28;19916;-87
2024/01/22 11:25:35;;;;;;;;;;;;;;;;;;5078161;28;20281;-89
2024/01/22 11:28:01;;;;;;;;;;;;;;;;;;5090906;28;19912;-88
2024/01/22 11:30:27;;;;;;;;;;;;;;;;;;5085314;28;20430;-87
2024/01/22 11:32:53;;;;;;;;;;;;;;;;;;5059252;28;19913;-88
2024/01/22 11:35:19;;;;;;;;;;;;;;;;;;5074280;28;20259;-86
2024/01/22 11:37:45;;;;;;;;;;;;;;;;;;5070657;28;19920;-87
2024/01/22 11:40:11;;;;;;;;;;;;;;;;;;5080408;28;19998;-89
2024/01/22 11:42:37;;;;;;;;;;;;;;;;;;5084755;28;20286;-89
2024/01/22 11:45:03;;;;;;;;;;;;;;;;;;5065271;28;19915;-85
2024/01/22 11:47:29;;;;;;;;;;;;;;;;;;5073313;28;19919;-87
2024/01/22 11:49:54;;;;;;;;;;;;;;;;;;5087976;28;20041;-86
2024/01/22 11:52:20;;;;;;;;;;;;;;;;;;5081529;28;19916;-87
2024/01/22 11:54:46;;;;;;;;;;;;;;;;;;5089055;28;19923;-88
2024/01/22 11:57:14;;;;;;;;;;;;;;;;;;5075320;28;20003;-90
2024/01/22 11:59:40;;;;;;;;;;;;;;;;;;5076095;28;19942;-88
2024/01/22 12:02:05;;;;;;;;;;;;;;;;;;5073917;28;19966;-87
2024/01/22 12:04:31;;;;;;;;;;;;;;;;;;5073480;28;19916;-88
2024/01/22 12:06:57;;;;;;;;;;;;;;;;;;5080996;28;20015;-87
2024/01/22 12:09:23;;;;;;;;;;;;;;;;;;5074659;28;19935;-87
2024/01/22 12:11:49;;;;;;;;;;;;;;;;;;5070753;28;19908;-88
2024/01/22 12:14:15;;;;;;;;;;;;;;;;;;5073251;28;19919;-88
2024/01/22 12:16:41;;;;;;;;;;;;;;;;;;5081931;28;20456;-87
2024/01/22 12:19:07;;;;;;;;;;;;;;;;;;5078809;28;20315;-86
2024/01/22 12:21:32;;;;;;;;;;;;;;;;;;5074728;28;19935;-85
2024/01/22 12:23:58;;;;;;;;;;;;;;;;;;5074628;28;19920;-87
2024/01/22 12:26:24;;;;;;;;;;;;;;;;;;5070014;28;19992;-87
2024/01/22 12:28:50;;;;;;;;;;;;;;;;;;5068559;28;19912;-88
2024/01/22 12:31:16;;;;;;;;;;;;;;;;;;5073616;28;19917;-88
2024/01/22 12:33:42;;;;;;;;;;;;;;;;;;5054592;28;20043;-89
2024/01/22 12:36:07;;;;;;;;;;;;;;;;;;5081145;28;20382;-87
2024/01/22 12:38:33;;;;;;;;;;;;;;;;;;5072570;28;19924;-87
2024/01/22 12:41:08;;;;;;;;;;;;;;;;;;5059892;28;19931;-87
2024/01/22 12:43:35;;;;;;;;;;;;;;;;;;5069553;28;19923;-87
2024/01/22 12:46:01;;;;;;;;;;;;;;;;;;5074534;28;20375;-87
2024/01/22 12:48:27;;;;;;;;;;;;;;;;;;5077889;28;19914;-86
2024/01/22 12:50:54;;;;;;;;;;;;;;;;;;5076244;28;20294;-85
2024/01/22 12:53:19;;;;;;;;;;;;;;;;;;5087077;28;19915;-86
2024/01/22 12:55:45;;;;;;;;;;;;;;;;;;5075032;28;19912;-86
2024/01/22 12:58:11;;;;;;;;;;;;;;;;;;5086876;28;20034;-86
2024/01/22 13:00:37;;;;;;;;;;;;;;;;;;5075629;28;19946;-84
2024/01/22 13:03:03;;;;;;;;;;;;;;;;;;5072681;28;19935;-85
2024/01/22 13:05:29;;;;;;;;;;;;;;;;;;5082082;28;19919;-86
2024/01/22 13:07:54;;;;;;;;;;;;;;;;;;5083847;28;19945;-85
2024/01/22 13:10:20;;;;;;;;;;;;;;;;;;5077039;28;20462;-88
2024/01/22 13:12:46;;;;;;;;;;;;;;;;;;5072524;28;19928;-85
2024/01/22 13:15:13;;;;;;;;;;;;;;;;;;5052159;28;20022;-86
2024/01/22 13:17:38;;;;;;;;;;;;;;;;;;5076133;28;19912;-85
2024/01/22 13:20:06;;;;;;;;;;;;;;;;;;5080833;28;19953;-84
2024/01/22 13:22:32;;;;;;;;;;;;;;;;;;5077535;28;19916;-85
2024/01/22 13:24:57;;;;;;;;;;;;;;;;;;5068797;28;20314;-86
2024/01/22 13:27:23;;;;;;;;;;;;;;;;;;5069174;28;20286;-85
2024/01/22 13:29:49;;;;;;;;;;;;;;;;;;5070458;28;19920;-87
2024/01/22 13:32:15;;;;;;;;;;;;;;;;;;5075809;28;19915;-86
2024/01/22 13:34:41;;;;;;;;;;;;;;;;;;5077061;28;19936;-86
2024/01/22 13:37:07;;;;;;;;;;;;;;;;;;5069694;28;20421;-86
2024/01/22 13:39:33;;;;;;;;;;;;;;;;;;5082937;28;19916;-87
2024/01/22 13:41:59;;;;;;;;;;;;;;;;;;5077857;28;19916;-86
2024/01/22 13:44:25;;;;;;;;;;;;;;;;;;5055675;28;19917;-86
2024/01/22 13:46:51;;;;;;;;;;;;;;;;;;5077172;28;20279;-86
2024/01/22 13:49:17;;;;;;;;;;;;;;;;;;5074387;28;19916;-84
2024/01/22 13:51:42;;;;;;;;;;;;;;;;;;5083474;28;19995;-86
2024/01/22 13:54:08;;;;;;;;;;;;;;;;;;5055733;28;19920;-85
2024/01/22 13:56:35;;;;;;;;;;;;;;;;;;5075325;28;19913;-85
2024/01/22 13:59:01;;;;;;;;;;;;;;;;;;5075535;28;19943;-86
2024/01/22 14:01:27;;;;;;;;;;;;;;;;;;5075094;28;19939;-87
2024/01/22 14:03:53;;;;;;;;;;;;;;;;;;5085797;28;19916;-85
2024/01/22 14:06:19;;;;;;;;;;;;;;;;;;5072843;28;19913;-87
2024/01/22 14:08:45;;;;;;;;;;;;;;;;;;5079849;28;19965;-85
2024/01/22 14:11:12;;;;;;;;;;;;;;;;;;5085149;28;19913;-86
2024/01/22 14:13:37;;;;;;;;;;;;;;;;;;5074806;28;19939;-85
2024/01/22 14:16:04;;;;;;;;;;;;;;;;;;5074249;28;19913;-85
2024/01/22 14:18:30;;;;;;;;;;;;;;;;;;5073981;28;19931;-86
2024/01/22 14:20:56;;;;;;;;;;;;;;;;;;5075366;28;19916;-86
2024/01/22 14:23:21;;;;;;;;;;;;;;;;;;5071510;28;20009;-86
2024/01/22 14:25:48;;;;;;;;;;;;;;;;;;5080383;28;19916;-86
2024/01/22 14:28:14;;;;;;;;;;;;;;;;;;5085305;28;19923;-87
2024/01/22 14:30:40;;;;;;;;;;;;;;;;;;5079322;28;19916;-86
2024/01/22 14:33:06;;;;;;;;;;;;;;;;;;5078478;28;19919;-79
2024/01/22 14:35:31;;;;;;;;;;;;;;;;;;5075265;28;19916;-84
2024/01/22 14:37:57;;;;;;;;;;;;;;;;;;5085440;28;20484;-86
2024/01/22 14:40:23;;;;;;;;;;;;;;;;;;5084124;28;19989;-87
2024/01/22 14:42:49;;;;;;;;;;;;;;;;;;5084970;28;20011;-86
2024/01/22 14:45:15;;;;;;;;;;;;;;;;;;5075902;28;19916;-88
2024/01/22 14:47:41;;;;;;;;;;;;;;;;;;5083990;28;19920;-86
2024/01/22 14:50:07;;;;;;;;;;;;;;;;;;5057364;28;19946;-84
2024/01/22 14:52:32;;;;;;;;;;;;;;;;;;5084879;28;19929;-86
2024/01/22 14:54:58;;;;;;;;;;;;;;;;;;5098494;28;19916;-87
2024/01/22 14:57:24;;;;;;;;;;;;;;;;;;5090718;28;19912;-86
2024/01/22 14:59:50;;;;;;;;;;;;;;;;;;5079957;28;19947;-85
2024/01/22 15:02:16;;;;;;;;;;;;;;;;;;5072386;28;19927;-85
2024/01/22 15:04:41;;;;;;;;;;;;;;;;;;5088304;28;19916;-86
2024/01/22 15:07:08;;;;;;;;;;;;;;;;;;5082082;28;20431;-87
2024/01/22 15:09:34;;;;;;;;;;;;;;;;;;5079648;28;20015;-86
2024/01/22 15:12:00;;;;;;;;;;;;;;;;;;5074764;28;20005;-87
2024/01/22 15:14:28;;;;;;;;;;;;;;;;;;5080860;28;20172;-87
2024/01/22 15:16:54;;;;;;;;;;;;;;;;;;5066476;28;19912;-90
2024/01/22 15:19:20;;;;;;;;;;;;;;;;;;5079252;28;20385;-89
2024/01/22 15:21:46;;;;;;;;;;;;;;;;;;5076825;28;19920;-87
2024/01/22 15:24:12;;;;;;;;;;;;;;;;;;5057445;28;19985;-88
2024/01/22 15:26:38;;;;;;;;;;;;;;;;;;5080977;28;20003;-86
2024/01/22 15:29:04;;;;;;;;;;;;;;;;;;5055486;28;19916;-89
2024/01/22 15:31:29;;;;;;;;;;;;;;;;;;5058577;28;19908;-86
2024/01/22 15:33:59;;;;;;;;;;;;;;;;;;5062157;28;20391;-87
2024/01/22 15:36:24;;;;;;;;;;;;;;;;;;5082351;28;19912;-82
2024/01/22 15:38:50;;;;;;;;;;;;;;;;;;5081252;28;19924;-79
2024/01/22 15:41:19;;;;;;;;;;;;;;;;;;5072115;28;19920;-91
2024/01/22 15:43:46;;;;;;;;;;;;;;;;;;5071235;28;19916;-82
2024/01/22 15:46:12;;;;;;;;;;;;;;;;;;5077489;28;20367;-79
2024/01/22 15:48:38;;;;;;;;;;;;;;;;;;5089502;28;19916;-77
2024/01/22 15:51:04;;;;;;;;;;;;;;;;;;5080505;28;20473;-78
2024/01/22 15:53:30;;;;;;;;;;;;;;;;;;5071241;28;20387;-78
2024/01/22 15:55:55;;;;;;;;;;;;;;;;;;5071230;28;19912;-78
2024/01/22 15:58:21;;;;;;;;;;;;;;;;;;5083655;28;20367;-78
2024/01/22 16:00:47;;;;;;;;;;;;;;;;;;5080235;28;20431;-80
2024/01/22 16:03:13;;;;;;;;;;;;;;;;;;5069827;28;19913;-86
2024/01/22 16:05:39;;;;;;;;;;;;;;;;;;5071995;28;19934;-88
2024/01/22 16:08:05;;;;;;;;;;;;;;;;;;5077494;28;19939;-86
2024/01/22 16:10:31;;;;;;;;;;;;;;;;;;5073668;28;19919;-86
2024/01/22 16:12:57;;;;;;;;;;;;;;;;;;5085053;28;19916;-89
2024/01/22 16:15:22;;;;;;;;;;;;;;;;;;5059076;28;19916;-80
2024/01/22 16:17:48;;;;;;;;;;;;;;;;;;5086274;28;19919;-81
2024/01/22 16:20:16;;;;;;;;;;;;;;;;;;5087804;28;20422;-80
2024/01/22 16:22:42;;;;;;;;;;;;;;;;;;5075744;28;20011;-79
2024/01/22 16:25:08;;;;;;;;;;;;;;;;;;5076726;28;19970;-79
2024/01/22 16:27:34;;;;;;;;;;;;;;;;;;5069431;28;19908;-80
2024/01/22 16:30:00;;;;;;;;;;;;;;;;;;5076259;28;19921;-85
2024/01/22 16:32:25;;;;;;;;;;;;;;;;;;5075911;28;19919;-86
2024/01/22 16:34:51;;;;;;;;;;;;;;;;;;5071544;28;20355;-88
2024/01/22 16:37:17;;;;;;;;;;;;;;;;;;5075397;28;20298;-88